53II weather

Steinman Airport
Woodburn, Indiana, United States

Public forecast

Using degrees Fahrenheit for public forecast. Weather courtesy of forecast.io.

METAR (pilot weather report)

Closest report is Fort Wayne International Airport, 17.0 nm (31.5 km) WSW. Retrieved 2019/04/22 03:54 UTC (9 minutes ago):

KFWA 220354Z 14006KT 10SM FEW250 12/08 A3015 RMK AO2 SLP209 T01170083

TAF (pilot weather forecast)

Forecast is more than 12 hours old.

Closest forecast is Fort Wayne International Airport, 17.0 nm (31.5 km) WSW. Retrieved 2019/04/21 00:22 UTC (1 day ago):

TAF KFWA 212320Z 2200/2224 14005KT P6SM FEW250 TEMPO 2210/2213 5SM BR FM221500 18013KT P6SM BKN150